Terminal Aerodrome Forecast
Issued by NWS Denver/Boulder, CO

Home | Current Version | Previous Version | Text Only | Print | Product List | Glossary On
Versions: 1 2 3 4 5 6 7 8 9 10 11 12 13 14 15 16 17 18 19 20 21 22 23 24 25 26 27 28 29 30 31 32 33 34 35 36 37 38 39 40 41 42 43 44 45 46 47 48 49 50
000
FTUS45 KBOU 312247 AAB
TAFDEN
TAF AMD
KDEN 312247Z 3123/0124 11007KT P6SM FEW100 SCT200
     FM010200 22009KT P6SM SCT200
     FM011500 26008KT P6SM SCT100 BKN180
     FM012000 35010KT P6SM VCSH BKN100 BKN180=

USA.gov is the U.S. government's official web portal to all federal, state and local government web resources and services.